Time,TemperatureF,DewpointF,PressureIn,WindDirection,WindDirectionDegrees,WindSpeedMPH,WindSpeedGustMPH,Humidity,HourlyPrecipIn,Conditions,Clouds,dailyrainin,SoftwareType,DateUTC
2013-07-12 00:13:00,74.2,72.0,29.89,NW,308,0.0,0.0,93,0.00,,,0.01,weatherlink.com 1.10,2013-07-12 04:13:00,
2013-07-12 00:28:00,74.3,72.0,29.89,NW,308,0.0,0.0,93,0.00,,,0.00,weatherlink.com 1.10,2013-07-12 04:28:00,
2013-07-12 00:43:00,74.4,72.0,29.89,NW,308,0.0,0.0,93,0.00,,,0.00,weatherlink.com 1.10,2013-07-12 04:43:00,
2013-07-12 00:58:00,74.3,72.0,29.89,NW,308,0.0,0.0,93,0.00,,,0.00,weatherlink.com 1.10,2013-07-12 04:58:00,
2013-07-12 01:14:00,74.1,72.0,29.90,NW,308,0.0,0.0,93,0.00,,,0.00,weatherlink.com 1.10,2013-07-12 05:14:00,
2013-07-12 01:29:00,74.0,72.0,29.90,NW,308,0.0,0.0,93,0.00,,,0.00,weatherlink.com 1.10,2013-07-12 05:29:00,
2013-07-12 01:44:00,73.9,72.0,29.90,NW,308,0.0,0.0,93,0.00,,,0.00,weatherlink.com 1.10,2013-07-12 05:44:00,
2013-07-12 01:59:00,73.9,72.0,29.90,NW,308,0.0,0.0,94,0.00,,,0.00,weatherlink.com 1.10,2013-07-12 05:59:00,
2013-07-12 02:14:00,73.9,72.0,29.90,NW,308,0.0,0.0,94,0.00,,,0.00,weatherlink.com 1.10,2013-07-12 06:14:00,
2013-07-12 02:29:00,73.8,72.0,29.89,NW,308,0.0,0.0,94,0.00,,,0.00,weatherlink.com 1.10,2013-07-12 06:29:00,
2013-07-12 02:44:00,73.7,72.0,29.89,NW,308,0.0,0.0,94,0.00,,,0.00,weatherlink.com 1.10,2013-07-12 06:44:00,
2013-07-12 02:59:00,73.6,72.0,29.89,NW,308,0.0,0.0,94,0.00,,,0.00,weatherlink.com 1.10,2013-07-12 06:59:00,
2013-07-12 03:14:00,73.7,72.0,29.89,NW,308,0.0,0.0,94,0.00,,,0.00,weatherlink.com 1.10,2013-07-12 07:14:00,
2013-07-12 03:29:00,73.8,72.0,29.88,NW,308,0.0,0.0,94,0.00,,,0.00,weatherlink.com 1.10,2013-07-12 07:29:00,
2013-07-12 03:44:00,73.7,72.0,29.88,NW,308,0.0,0.0,94,0.00,,,0.00,weatherlink.com 1.10,2013-07-12 07:44:00,
2013-07-12 03:59:00,73.8,72.0,29.87,NW,308,0.0,0.0,94,0.00,,,0.00,weatherlink.com 1.10,2013-07-12 07:59:00,
2013-07-12 04:14:00,73.9,72.0,29.87,NW,308,0.0,0.0,94,0.00,,,0.00,weatherlink.com 1.10,2013-07-12 08:14:00,
2013-07-12 04:29:00,73.4,70.0,29.87,NW,308,1.0,2.0,90,0.00,,,0.00,weatherlink.com 1.10,2013-07-12 08:29:00,
2013-07-12 04:44:00,72.4,68.0,29.88,NW,308,0.0,2.0,85,0.00,,,0.00,weatherlink.com 1.10,2013-07-12 08:44:00,
2013-07-12 04:59:00,72.4,67.0,29.88,NW,308,0.0,2.0,83,0.00,,,0.00,weatherlink.com 1.10,2013-07-12 08:59:00,
2013-07-12 05:14:00,71.6,68.0,29.88,WNW,297,2.0,5.0,87,0.00,,,0.00,weatherlink.com 1.10,2013-07-12 09:14:00,
2013-07-12 05:29:00,70.5,68.0,29.89,WNW,298,1.0,7.0,92,0.03,,,0.03,weatherlink.com 1.10,2013-07-12 09:29:00,
2013-07-12 05:44:00,70.0,68.0,29.90,NW,309,3.0,6.0,94,0.17,,,0.17,weatherlink.com 1.10,2013-07-12 09:44:00,
2013-07-12 05:59:00,69.1,68.0,29.91,NW,304,1.0,4.0,95,0.38,,,0.38,weatherlink.com 1.10,2013-07-12 09:59:00,
2013-07-12 06:14:00,69.3,68.0,29.91,WNW,288,1.0,5.0,95,0.68,,,0.68,weatherlink.com 1.10,2013-07-12 10:14:00,
2013-07-12 06:29:00,69.2,68.0,29.92,NW,317,0.0,3.0,96,0.96,,,1.00,weatherlink.com 1.10,2013-07-12 10:29:00,
2013-07-12 06:44:00,69.2,68.0,29.92,NW,317,1.0,4.0,96,0.94,,,1.12,weatherlink.com 1.10,2013-07-12 10:44:00,
2013-07-12 06:59:00,69.5,68.0,29.93,NW,317,0.0,2.0,96,0.79,,,1.18,weatherlink.com 1.10,2013-07-12 10:59:00,
2013-07-12 07:14:00,69.8,69.0,29.92,NW,317,2.0,3.0,96,0.49,,,1.21,weatherlink.com 1.10,2013-07-12 11:14:00,
2013-07-12 07:29:00,69.7,69.0,29.92,NW,317,0.0,3.0,96,0.26,,,1.26,weatherlink.com 1.10,2013-07-12 11:29:00,
2013-07-12 07:44:00,69.6,69.0,29.92,NW,317,0.0,3.0,96,0.15,,,1.28,weatherlink.com 1.10,2013-07-12 11:44:00,
2013-07-12 07:59:00,69.6,69.0,29.93,NW,317,1.0,3.0,96,0.12,,,1.30,weatherlink.com 1.10,2013-07-12 11:59:00,
2013-07-12 08:25:00,69.6,69.0,29.93,NW,317,1.0,3.0,96,0.09,,,1.33,weatherlink.com 1.10,2013-07-12 12:25:00,
2013-07-12 08:31:00,69.7,69.0,29.93,NW,317,1.0,3.0,97,0.07,,,1.34,weatherlink.com 1.10,2013-07-12 12:31:00,
2013-07-12 08:44:00,69.5,68.0,29.93,WNW,295,1.0,4.0,96,0.06,,,1.34,weatherlink.com 1.10,2013-07-12 12:44:00,
2013-07-12 11:13:00,69.4,69.0,29.95,WNW,294,0.0,1.0,97,0.06,,,1.46,weatherlink.com 1.10,2013-07-12 15:13:00,
2013-07-12 11:29:00,69.7,69.0,29.95,WNW,294,0.0,2.0,97,0.05,,,1.47,weatherlink.com 1.10,2013-07-12 15:29:00,
2013-07-12 11:44:00,69.5,69.0,29.96,WNW,294,0.0,1.0,97,0.04,,,1.48,weatherlink.com 1.10,2013-07-12 15:44:00,
2013-07-12 11:59:00,69.9,69.0,29.96,WNW,295,0.0,3.0,97,0.04,,,1.49,weatherlink.com 1.10,2013-07-12 15:59:00,
2013-07-12 12:14:00,70.4,70.0,29.96,WNW,286,0.0,2.0,97,0.03,,,1.49,weatherlink.com 1.10,2013-07-12 16:14:00,
2013-07-12 13:11:00,70.0,69.0,29.95,NNW,333,1.0,2.0,97,0.01,,,1.50,weatherlink.com 1.10,2013-07-12 17:11:00,
2013-07-12 13:29:00,70.5,70.0,29.95,WSW,238,1.0,3.0,97,0.01,,,1.51,weatherlink.com 1.10,2013-07-12 17:29:00,
2013-07-12 13:44:00,70.7,70.0,29.95,West,274,0.0,2.0,97,0.01,,,1.51,weatherlink.com 1.10,2013-07-12 17:44:00,
2013-07-12 13:59:00,70.7,70.0,29.95,WNW,288,0.0,2.0,97,0.01,,,1.51,weatherlink.com 1.10,2013-07-12 17:59:00,
2013-07-12 15:00:00,70.2,69.0,29.97,WSW,257,0.0,2.0,96,0.01,,,1.52,weatherlink.com 1.10,2013-07-12 19:00:00,
2013-07-12 15:15:00,70.0,69.0,29.97,WSW,257,0.0,2.0,96,0.01,,,1.52,weatherlink.com 1.10,2013-07-12 19:15:00,
2013-07-12 15:30:00,70.1,69.0,29.97,WNW,288,0.0,2.0,96,0.01,,,1.52,weatherlink.com 1.10,2013-07-12 19:30:00,
2013-07-12 16:00:00,70.5,70.0,29.96,WNW,299,0.0,1.0,97,0.02,,,1.54,weatherlink.com 1.10,2013-07-12 20:00:00,
2013-07-12 16:15:00,70.4,69.0,29.96,NW,321,1.0,3.0,96,0.03,,,1.55,weatherlink.com 1.10,2013-07-12 20:15:00,
2013-07-12 16:30:00,70.5,70.0,29.96,NW,318,1.0,3.0,97,0.04,,,1.56,weatherlink.com 1.10,2013-07-12 20:30:00,
2013-07-12 17:00:00,70.6,70.0,29.95,NW,304,2.0,5.0,97,0.02,,,1.56,weatherlink.com 1.10,2013-07-12 21:00:00,
2013-07-12 17:30:00,70.3,69.0,29.95,NW,315,2.0,4.0,96,0.00,,,1.56,weatherlink.com 1.10,2013-07-12 21:30:00,
2013-07-12 17:45:00,70.6,70.0,29.95,NW,315,2.0,3.0,96,0.00,,,1.56,weatherlink.com 1.10,2013-07-12 21:45:00,
2013-07-12 18:00:00,70.9,70.0,29.95,NW,320,1.0,4.0,96,0.01,,,1.57,weatherlink.com 1.10,2013-07-12 22:00:00,
2013-07-12 18:15:00,70.8,70.0,29.95,NW,309,0.0,4.0,96,0.04,,,1.60,weatherlink.com 1.10,2013-07-12 22:15:00,
2013-07-12 18:30:00,70.8,70.0,29.95,NW,309,0.0,3.0,96,0.04,,,1.60,weatherlink.com 1.10,2013-07-12 22:30:00,
2013-07-12 18:45:00,70.7,70.0,29.95,NW,309,1.0,3.0,96,0.04,,,1.60,weatherlink.com 1.10,2013-07-12 22:45:00,
2013-07-12 19:00:00,70.8,70.0,29.95,NW,309,0.0,3.0,97,0.04,,,1.61,weatherlink.com 1.10,2013-07-12 23:00:00,
2013-07-12 19:15:00,70.8,70.0,29.95,NW,309,0.0,3.0,97,0.01,,,1.61,weatherlink.com 1.10,2013-07-12 23:15:00,
2013-07-12 19:30:00,70.8,70.0,29.95,NW,319,0.0,3.0,97,0.01,,,1.61,weatherlink.com 1.10,2013-07-12 23:30:00,
2013-07-12 19:45:00,71.1,70.0,29.95,NW,319,2.0,2.0,97,0.01,,,1.61,weatherlink.com 1.10,2013-07-12 23:45:00,
2013-07-12 20:00:00,70.5,69.0,29.95,NW,315,0.0,5.0,96,0.01,,,1.62,weatherlink.com 1.10,2013-07-13 00:00:00,
2013-07-12 20:45:00,70.1,69.0,29.96,NW,315,0.0,2.0,96,0.01,,,1.62,weatherlink.com 1.10,2013-07-13 00:45:00,
2013-07-12 21:00:00,70.3,69.0,29.96,NW,315,0.0,2.0,96,0.00,,,1.62,weatherlink.com 1.10,2013-07-13 01:00:00,
2013-07-12 21:30:00,70.4,69.0,29.97,NW,315,0.0,2.0,96,0.00,,,1.62,weatherlink.com 1.10,2013-07-13 01:30:00,
2013-07-12 21:45:00,70.8,70.0,29.97,NW,315,0.0,3.0,96,0.00,,,1.62,weatherlink.com 1.10,2013-07-13 01:45:00,
2013-07-12 22:00:00,71.0,70.0,29.98,NW,315,0.0,1.0,96,0.00,,,1.62,weatherlink.com 1.10,2013-07-13 02:00:00,
2013-07-12 22:15:00,71.2,70.0,29.98,NW,315,0.0,2.0,96,0.00,,,1.62,weatherlink.com 1.10,2013-07-13 02:15:00,
2013-07-12 22:30:00,71.2,70.0,29.98,NW,315,0.0,0.0,96,0.00,,,1.62,weatherlink.com 1.10,2013-07-13 02:30:00,
2013-07-12 22:45:00,71.1,70.0,29.99,NW,315,0.0,1.0,95,0.00,,,1.62,weatherlink.com 1.10,2013-07-13 02:45:00,
2013-07-12 23:00:00,71.1,70.0,29.99,NNW,336,0.0,3.0,95,0.00,,,1.62,weatherlink.com 1.10,2013-07-13 03:00:00,
2013-07-12 23:15:00,71.0,70.0,29.99,NNE,20,0.0,2.0,95,0.00,,,1.62,weatherlink.com 1.10,2013-07-13 03:15:00,
2013-07-12 23:30:00,71.0,70.0,29.99,NNE,28,0.0,1.0,95,0.00,,,1.62,weatherlink.com 1.10,2013-07-13 03:30:00,
2013-07-12 23:45:00,71.0,70.0,29.99,ENE,63,0.0,0.0,96,0.00,,,1.62,weatherlink.com 1.10,2013-07-13 03:45:00,